createdAt,value
2019-04-23T00:01:35.106Z,12.30
2019-04-23T00:04:03.729Z,12.30
2019-04-23T00:06:32.163Z,12.30
2019-04-23T00:09:07.357Z,12.30
2019-04-23T00:11:32.733Z,12.30
2019-04-23T00:14:05.626Z,12.30
2019-04-23T00:16:42.207Z,12.30
2019-04-23T00:19:04.898Z,12.30
2019-04-23T00:21:53.518Z,12.30
2019-04-23T00:27:22.640Z,12.30
2019-04-23T00:32:15.099Z,12.30
2019-04-23T00:34:47.927Z,12.20
2019-04-23T00:39:51.453Z,12.10
2019-04-23T00:42:23.546Z,12.10
2019-04-23T00:47:22.875Z,12.00
2019-04-23T00:49:51.241Z,12.00
2019-04-23T00:52:23.997Z,12.00
2019-04-23T00:54:58.008Z,12.10
2019-04-23T00:57:24.510Z,12.10
2019-04-23T01:00:02.062Z,12.10
2019-04-23T01:02:24.628Z,12.10
2019-04-23T01:05:01.631Z,12.10
2019-04-23T01:07:24.661Z,12.10
2019-04-23T01:10:02.760Z,12.10
2019-04-23T01:12:38.415Z,12.00
2019-04-23T01:15:02.488Z,12.10
2019-04-23T01:17:42.669Z,12.00
2019-04-23T01:20:08.182Z,12.00
2019-04-23T01:22:23.196Z,12.00
2019-04-23T01:25:15.179Z,11.90
2019-04-23T01:28:25.338Z,11.90
2019-04-23T01:30:57.118Z,11.90
2019-04-23T01:33:27.534Z,11.80
2019-04-23T01:36:03.297Z,11.80
2019-04-23T01:38:28.570Z,11.80
2019-04-23T01:43:22.915Z,11.70
2019-04-23T01:45:54.418Z,11.80
2019-04-23T01:48:30.771Z,11.80
2019-04-23T01:55:59.222Z,11.70
2019-04-23T01:58:38.792Z,11.70
2019-04-23T02:00:58.008Z,11.70
2019-04-23T02:03:48.452Z,11.60
2019-04-23T02:06:00.304Z,11.60
2019-04-23T02:08:32.216Z,11.50
2019-04-23T02:11:00.359Z,11.50
2019-04-23T02:13:50.870Z,11.60
2019-04-23T02:15:59.745Z,11.50
2019-04-23T02:18:38.837Z,11.50
2019-04-23T02:21:07.465Z,11.50
2019-04-23T02:23:47.957Z,11.40
2019-04-23T02:26:26.451Z,11.40
2019-04-23T02:29:28.705Z,11.40
2019-04-23T02:35:10.007Z,11.30
2019-04-23T02:37:22.145Z,11.30
2019-04-23T02:44:53.776Z,11.20
2019-04-23T02:47:23.604Z,11.20
2019-04-23T02:50:12.439Z,11.20
2019-04-23T02:52:21.726Z,11.20
2019-04-23T02:57:20.225Z,11.10
2019-04-23T03:02:37.121Z,11.10
2019-04-23T03:07:34.870Z,11.10
2019-04-23T03:10:02.870Z,11.10
2019-04-23T03:15:39.725Z,11.00
2019-04-23T03:18:33.258Z,11.10
2019-04-23T03:21:01.831Z,11.00
2019-04-23T03:23:47.224Z,11.00
2019-04-23T03:26:04.289Z,10.90
2019-04-23T03:28:36.279Z,10.90
2019-04-23T03:32:37.300Z,10.90
2019-04-23T03:41:10.797Z,11.00
2019-04-23T03:43:39.354Z,10.90
2019-04-23T03:46:15.696Z,10.90
2019-04-23T03:51:09.060Z,10.80
2019-04-23T03:53:45.773Z,10.80
2019-04-23T03:58:39.449Z,10.80
2019-04-23T04:01:07.772Z,10.80
2019-04-23T04:04:10.768Z,10.80
2019-04-23T04:06:20.510Z,10.80
2019-04-23T04:08:36.493Z,10.80
2019-04-23T04:11:19.183Z,10.80
2019-04-23T04:13:40.288Z,10.70
2019-04-23T04:16:07.440Z,10.70
2019-04-23T04:21:18.461Z,10.70
2019-04-23T04:23:51.312Z,10.70
2019-04-23T04:26:32.626Z,10.80
2019-04-23T04:28:51.469Z,10.80
2019-04-23T04:31:20.977Z,10.80
2019-04-23T04:38:54.859Z,10.80
2019-04-23T04:41:25.686Z,10.80
2019-04-23T04:44:05.474Z,10.80
2019-04-23T04:54:21.330Z,10.90
2019-04-23T04:56:58.159Z,10.90
2019-04-23T04:59:50.241Z,10.90
2019-04-23T05:02:44.592Z,10.90
2019-04-23T05:07:26.035Z,11.00
2019-04-23T05:12:34.963Z,11.00
2019-04-23T05:14:59.110Z,11.00
2019-04-23T05:17:59.330Z,11.10
2019-04-23T05:20:24.006Z,11.00
2019-04-23T05:23:03.928Z,11.20
2019-04-23T05:25:20.909Z,11.20
2019-04-23T05:30:24.335Z,11.30
2019-04-23T05:32:56.444Z,11.30
2019-04-23T05:35:39.935Z,11.30
2019-04-23T05:38:21.861Z,11.30
2019-04-23T05:42:52.008Z,11.30
2019-04-23T05:45:30.151Z,11.40
2019-04-23T05:48:09.726Z,11.50
2019-04-23T05:50:34.090Z,11.50
2019-04-23T05:53:02.477Z,11.50
2019-04-23T05:55:30.420Z,11.60
2019-04-23T05:58:03.706Z,11.60
2019-04-23T06:00:32.399Z,11.70
2019-04-23T06:03:06.345Z,11.70
2019-04-23T06:05:37.195Z,11.80
2019-04-23T06:08:03.481Z,11.80
2019-04-23T06:10:40.761Z,11.80
2019-04-23T06:13:04.869Z,11.90
2019-04-23T06:15:36.886Z,11.90
2019-04-23T06:20:52.278Z,12.10
2019-04-23T06:23:14.500Z,12.10
2019-04-23T06:26:15.500Z,12.10
2019-04-23T06:28:19.235Z,12.10
2019-04-23T06:30:52.230Z,12.20
2019-04-23T06:33:22.684Z,12.20
2019-04-23T06:35:50.454Z,12.30
2019-04-23T06:40:47.155Z,12.40
2019-04-23T06:43:30.305Z,12.40
2019-04-23T06:45:50.434Z,12.50
2019-04-23T06:48:28.799Z,12.60
2019-04-23T06:53:27.203Z,12.70
2019-04-23T06:58:32.689Z,12.90
2019-04-23T07:01:02.090Z,12.90
2019-04-23T07:06:16.807Z,13.00
2019-04-23T07:11:16.708Z,13.10
2019-04-23T07:13:46.650Z,13.10
2019-04-23T07:18:41.524Z,13.30
2019-04-23T07:23:53.602Z,13.40
2019-04-23T07:26:29.683Z,13.40
2019-04-23T07:28:53.340Z,13.50
2019-04-23T07:31:20.219Z,13.50
2019-04-23T07:33:55.762Z,13.60
2019-04-23T07:36:25.881Z,13.60
2019-04-23T07:39:17.611Z,13.70
2019-04-23T07:42:10.818Z,13.70
2019-04-23T07:44:53.456Z,13.80
2019-04-23T07:50:08.043Z,13.90
2019-04-23T07:52:23.925Z,14.00
2019-04-23T07:55:03.019Z,14.00
2019-04-23T07:57:40.046Z,14.10
2019-04-23T08:00:07.867Z,14.10
2019-04-23T08:02:37.702Z,14.10
2019-04-23T08:07:27.119Z,14.30
2019-04-23T08:10:00.698Z,14.30
2019-04-23T08:12:30.940Z,14.40
2019-04-23T08:15:07.473Z,14.40
2019-04-23T08:17:29.174Z,14.50
2019-04-23T08:20:11.169Z,14.60
2019-04-23T08:22:32.389Z,14.60
2019-04-23T08:25:19.118Z,14.60
2019-04-23T08:27:59.323Z,14.60
2019-04-23T08:30:24.098Z,14.70
2019-04-23T08:32:57.394Z,14.80
2019-04-23T08:35:34.507Z,14.90
2019-04-23T08:38:11.667Z,14.90
2019-04-23T08:40:35.565Z,15.10
2019-04-23T08:43:29.646Z,15.10
2019-04-23T08:45:58.348Z,15.10
2019-04-23T08:50:57.779Z,15.30
2019-04-23T08:53:35.747Z,15.40
2019-04-23T08:56:18.389Z,15.40
2019-04-23T08:58:32.188Z,15.50
2019-04-23T09:01:06.329Z,15.50
2019-04-23T09:06:05.825Z,15.60
2019-04-23T09:11:16.634Z,15.80
2019-04-23T09:16:25.429Z,16.00
2019-04-23T09:18:55.987Z,16.20
2019-04-23T09:21:10.685Z,16.20
2019-04-23T09:23:40.890Z,16.20
2019-04-23T09:26:22.149Z,16.30
2019-04-23T09:32:07.755Z,16.30
2019-04-23T09:34:19.048Z,16.40
2019-04-23T09:37:06.195Z,16.40
2019-04-23T09:39:42.189Z,16.50
2019-04-23T09:42:32.445Z,16.60
2019-04-23T09:45:26.871Z,16.60
2019-04-23T09:47:56.867Z,16.70
2019-04-23T09:50:29.798Z,16.70
2019-04-23T09:53:08.478Z,16.80
2019-04-23T10:00:36.384Z,16.70
2019-04-23T10:02:47.341Z,16.80
2019-04-23T10:05:14.077Z,16.90
2019-04-23T10:07:43.725Z,16.90
2019-04-23T10:10:05.539Z,16.90
2019-04-23T10:12:35.723Z,17.00
2019-04-23T10:15:13.748Z,17.20
2019-04-23T10:17:36.201Z,17.20
2019-04-23T10:20:06.755Z,17.20
2019-04-23T10:22:37.961Z,17.20
2019-04-23T10:25:08.746Z,17.20
2019-04-23T10:27:39.155Z,17.30
2019-04-23T10:30:09.970Z,17.40
2019-04-23T10:32:40.026Z,17.40
2019-04-23T10:35:22.158Z,17.50
2019-04-23T10:37:48.993Z,17.60
2019-04-23T10:40:16.924Z,17.60
2019-04-23T10:42:45.692Z,17.70
2019-04-23T10:45:57.172Z,17.70
2019-04-23T10:49:31.717Z,17.80
2019-04-23T10:51:51.102Z,17.80
2019-04-23T10:56:55.305Z,17.80
2019-04-23T10:59:42.117Z,17.80
2019-04-23T11:02:29.002Z,17.90
2019-04-23T11:07:27.116Z,18.10
2019-04-23T11:13:01.225Z,18.20
2019-04-23T11:15:47.299Z,18.30
2019-04-23T11:17:58.442Z,18.40
2019-04-23T11:20:30.061Z,18.40
2019-04-23T11:22:50.931Z,18.50
2019-04-23T11:28:02.974Z,18.60
2019-04-23T11:33:09.223Z,18.80
2019-04-23T11:38:32.292Z,18.90
2019-04-23T11:40:25.331Z,19.00
2019-04-23T11:45:41.687Z,19.10
2019-04-23T11:48:21.994Z,19.20
2019-04-23T11:51:21.878Z,19.10
2019-04-23T11:53:00.283Z,19.10
2019-04-23T11:58:13.771Z,19.00
2019-04-23T12:01:02.135Z,19.10
2019-04-23T12:07:19.064Z,19.20
2019-04-23T12:17:42.218Z,19.20
2019-04-23T12:20:03.338Z,19.30
2019-04-23T12:22:34.303Z,19.30
2019-04-23T12:30:00.796Z,19.30
2019-04-23T12:37:53.840Z,19.40
2019-04-23T12:40:25.186Z,19.50
2019-04-23T12:43:04.923Z,19.40
2019-04-23T12:48:26.256Z,19.50
2019-04-23T12:50:45.034Z,19.50
2019-04-23T12:55:36.169Z,19.70
2019-04-23T12:58:10.059Z,19.70
2019-04-23T13:00:48.079Z,19.80
2019-04-23T13:03:12.278Z,19.80
2019-04-23T13:05:33.909Z,19.90
2019-04-23T13:08:23.391Z,20.00
2019-04-23T13:10:44.090Z,20.00
2019-04-23T13:13:33.698Z,19.80
2019-04-23T13:16:02.616Z,19.80
2019-04-23T13:18:17.488Z,19.80
2019-04-23T13:20:42.614Z,19.80
2019-04-23T13:23:22.278Z,19.90
2019-04-23T13:26:05.666Z,20.00
2019-04-23T13:28:48.412Z,20.00
2019-04-23T13:31:16.294Z,20.10
2019-04-23T13:33:47.130Z,20.10
2019-04-23T13:38:47.353Z,20.10
2019-04-23T13:41:20.473Z,20.10
2019-04-23T13:48:47.035Z,20.10
2019-04-23T14:01:29.082Z,20.20
2019-04-23T14:04:07.591Z,20.30
2019-04-23T14:14:14.483Z,20.40
2019-04-23T14:19:23.019Z,20.40
2019-04-23T14:21:45.924Z,20.40
2019-04-23T14:26:46.995Z,20.30
2019-04-23T14:29:26.424Z,20.40
2019-04-23T14:32:00.899Z,20.50
2019-04-23T14:34:21.172Z,20.60
2019-04-23T14:36:55.547Z,20.60
2019-04-23T14:41:53.331Z,20.70
2019-04-23T14:44:25.225Z,20.70
2019-04-23T14:47:07.644Z,20.60
2019-04-23T14:52:06.632Z,20.70
2019-04-23T14:59:41.282Z,20.80
2019-04-23T15:02:13.205Z,20.90
2019-04-23T15:04:39.362Z,20.90
2019-04-23T15:07:16.857Z,20.90
2019-04-23T15:09:53.188Z,20.80
2019-04-23T15:12:23.520Z,20.90
2019-04-23T15:14:56.185Z,20.90
2019-04-23T15:20:03.152Z,20.80
2019-04-23T15:22:46.288Z,20.70
2019-04-23T15:25:19.514Z,20.60
2019-04-23T15:29:58.108Z,20.60
2019-04-23T15:32:56.112Z,20.60
2019-04-23T15:37:58.264Z,20.70
2019-04-23T15:40:18.305Z,20.80
2019-04-23T15:42:51.008Z,20.80
2019-04-23T15:45:15.223Z,20.90
2019-04-23T15:47:49.361Z,20.80
2019-04-23T15:52:55.156Z,20.90
2019-04-23T15:55:12.241Z,21.00
2019-04-23T16:00:13.305Z,21.00
2019-04-23T16:02:21.588Z,21.10
2019-04-23T16:04:51.219Z,21.00
2019-04-23T16:07:38.214Z,20.90
2019-04-23T16:10:25.083Z,20.80
2019-04-23T16:15:19.710Z,20.60
2019-04-23T16:18:24.065Z,20.60
2019-04-23T16:20:51.689Z,20.40
2019-04-23T16:23:15.186Z,20.30
2019-04-23T16:25:44.164Z,20.20
2019-04-23T16:28:18.907Z,20.10
2019-04-23T16:30:46.258Z,20.10
2019-04-23T16:33:20.649Z,20.10
2019-04-23T16:36:32.490Z,20.20
2019-04-23T16:38:32.550Z,20.10
2019-04-23T16:40:57.215Z,20.10
2019-04-23T16:43:30.355Z,20.00
2019-04-23T16:46:02.388Z,19.90
2019-04-23T16:51:18.054Z,19.90
2019-04-23T16:53:46.310Z,19.80
2019-04-23T16:56:13.840Z,19.80
2019-04-23T16:58:59.439Z,19.70
2019-04-23T17:06:17.735Z,19.60
2019-04-23T17:08:53.946Z,19.70
2019-04-23T17:11:18.856Z,19.60
2019-04-23T17:13:50.974Z,19.60
2019-04-23T17:18:47.170Z,19.50
2019-04-23T17:21:18.402Z,19.50
2019-04-23T17:24:05.394Z,19.40
2019-04-23T17:26:19.113Z,19.30
2019-04-23T17:29:00.387Z,19.30
2019-04-23T17:33:59.064Z,19.30
2019-04-23T17:36:38.619Z,19.20
2019-04-23T17:39:10.609Z,19.20
2019-04-23T17:41:59.621Z,19.10
2019-04-23T17:44:27.541Z,19.10
2019-04-23T17:46:50.477Z,19.10
2019-04-23T17:49:22.232Z,18.90
2019-04-23T17:52:01.062Z,18.90
2019-04-23T17:54:24.747Z,18.80
2019-04-23T17:59:59.986Z,18.80
2019-04-23T18:02:48.271Z,18.70
2019-04-23T18:07:36.297Z,18.70
2019-04-23T18:10:03.237Z,18.60
2019-04-23T18:12:39.105Z,18.60
2019-04-23T18:14:47.158Z,18.50
2019-04-23T18:17:21.125Z,18.40
2019-04-23T18:20:16.751Z,18.40
2019-04-23T18:22:53.522Z,18.20
2019-04-23T18:28:19.087Z,18.10
2019-04-23T18:30:59.596Z,18.00
2019-04-23T18:36:19.745Z,17.90
2019-04-23T18:39:01.041Z,17.80
2019-04-23T18:41:20.458Z,17.80
2019-04-23T18:44:09.774Z,17.70
2019-04-23T18:48:54.556Z,17.70
2019-04-23T18:51:34.445Z,17.70
2019-04-23T18:56:42.768Z,17.70
2019-04-23T19:01:48.292Z,17.50
2019-04-23T19:04:50.985Z,17.50
2019-04-23T19:07:05.361Z,17.40
2019-04-23T19:13:11.238Z,17.40
2019-04-23T19:17:50.508Z,17.50
2019-04-23T19:20:47.931Z,17.40
2019-04-23T19:23:16.396Z,17.30
2019-04-23T19:25:25.944Z,17.30
2019-04-23T19:28:01.415Z,17.20
2019-04-23T19:30:49.630Z,17.10
2019-04-23T19:33:22.319Z,17.10
2019-04-23T19:38:10.609Z,16.90
2019-04-23T19:40:51.192Z,16.80
2019-04-23T19:43:20.013Z,16.70
2019-04-23T19:45:55.767Z,16.70
2019-04-23T19:53:29.038Z,16.40
2019-04-23T19:56:03.891Z,16.30
2019-04-23T19:58:34.500Z,16.30
2019-04-23T20:01:31.249Z,16.20
2019-04-23T20:04:21.672Z,16.10
2019-04-23T20:06:32.839Z,16.00
2019-04-23T20:09:12.746Z,15.90
2019-04-23T20:11:32.688Z,15.90
2019-04-23T20:13:55.558Z,15.90
2019-04-23T20:16:30.571Z,15.90
2019-04-23T20:21:28.314Z,15.80
2019-04-23T20:24:20.749Z,15.70
2019-04-23T20:26:23.689Z,15.70
2019-04-23T20:30:05.386Z,15.60
2019-04-23T20:32:55.364Z,15.60
2019-04-23T20:37:42.267Z,15.50
2019-04-23T20:40:04.459Z,15.40
2019-04-23T20:47:33.362Z,15.30
2019-04-23T20:49:58.497Z,15.30
2019-04-23T20:52:29.200Z,15.20
2019-04-23T20:58:03.645Z,15.10
2019-04-23T21:00:23.810Z,15.00
2019-04-23T21:05:27.585Z,15.00
2019-04-23T21:08:06.157Z,15.00
2019-04-23T21:10:37.075Z,14.80
2019-04-23T21:13:20.542Z,14.80
2019-04-23T21:15:38.970Z,14.80
2019-04-23T21:18:15.599Z,14.80
2019-04-23T21:20:42.679Z,14.70
2019-04-23T21:23:13.375Z,14.70
2019-04-23T21:25:44.645Z,14.70
2019-04-23T21:28:17.120Z,14.60
2019-04-23T21:33:55.389Z,14.60
2019-04-23T21:41:56.522Z,14.40
2019-04-23T21:44:35.609Z,14.30
2019-04-23T21:49:38.646Z,14.20
2019-04-23T21:51:57.472Z,14.30
2019-04-23T21:54:23.156Z,14.20
2019-04-23T21:56:53.902Z,14.20
2019-04-23T21:59:27.541Z,14.10
2019-04-23T22:01:58.906Z,14.10
2019-04-23T22:04:44.904Z,14.00
2019-04-23T22:09:34.705Z,14.00
2019-04-23T22:12:05.601Z,14.00
2019-04-23T22:14:38.182Z,13.90
2019-04-23T22:17:06.195Z,13.80
2019-04-23T22:19:29.494Z,13.70
2019-04-23T22:22:20.424Z,13.70
2019-04-23T22:24:33.032Z,13.70
2019-04-23T22:27:05.419Z,13.70
2019-04-23T22:32:02.785Z,13.80
2019-04-23T22:34:44.811Z,13.80
2019-04-23T22:37:11.486Z,13.80
2019-04-23T22:43:13.213Z,13.80
2019-04-23T22:45:17.337Z,13.80
2019-04-23T22:48:04.630Z,13.80
2019-04-23T22:50:19.045Z,13.80
2019-04-23T22:52:53.843Z,13.80
2019-04-23T22:55:23.500Z,13.80
2019-04-23T23:00:16.647Z,13.70
2019-04-23T23:03:20.282Z,13.70
2019-04-23T23:08:22.453Z,13.60
2019-04-23T23:10:52.196Z,13.50
2019-04-23T23:13:20.641Z,13.40
2019-04-23T23:15:53.367Z,13.40
2019-04-23T23:18:19.901Z,13.30
2019-04-23T23:20:52.731Z,13.30
2019-04-23T23:25:59.151Z,13.30
2019-04-23T23:31:05.318Z,13.30
2019-04-23T23:33:24.762Z,13.30
2019-04-23T23:35:58.891Z,13.20
2019-04-23T23:38:33.005Z,13.20
2019-04-23T23:41:03.696Z,13.20
2019-04-23T23:43:30.275Z,13.20
2019-04-23T23:46:04.858Z,13.20
2019-04-23T23:48:28.073Z,13.30
2019-04-23T23:51:14.397Z,13.30
2019-04-23T23:53:41.839Z,13.30
2019-04-23T23:58:41.051Z,13.20
